Time;durP1;ratioP1;P1;durP2;ratioP2;P2;SDS_P1;SDS_P2;PMS_P1;PMS_P2;Temp;Humidity;BMP_temperature;BMP_pressure;BME280_temperature;BME280_humidity;BME280_pressure;Samples;Min_cycle;Max_cycle;Signal;HPM_P1;HPM_P2
2022/12/17 13:06:43;;;;;;;0.28;0.28;;;-2.10;99.90;;;;;;5071230;28;20245;-70
2022/12/17 13:09:31;;;;;;;0.40;0.40;;;-2.10;99.90;;;;;;5050042;28;20210;-70
2022/12/17 13:12:17;;;;;;;0.47;0.47;;;-2.20;99.90;;;;;;5056473;28;20206;-70
2022/12/17 13:14:48;;;;;;;0.30;0.30;;;-2.20;99.90;;;;;;5048168;28;20289;-70
2022/12/17 13:17:33;;;;;;;0.35;0.35;;;-2.30;99.90;;;;;;5070718;28;20218;-70
2022/12/17 13:20:21;;;;;;;0.30;0.30;;;-2.30;99.90;;;;;;5069829;28;20202;-70
2022/12/17 13:22:55;;;;;;;0.40;0.40;;;-2.40;99.90;;;;;;5054533;28;20209;-70
2022/12/17 13:25:23;;;;;;;0.20;0.20;;;-2.40;99.90;;;;;;5051312;28;20285;-70
2022/12/17 13:27:51;;;;;;;0.30;0.30;;;-2.40;99.90;;;;;;5068325;28;20223;-70
2022/12/17 13:30:31;;;;;;;0.50;0.50;;;-2.50;99.90;;;;;;5053709;28;20210;-71
2022/12/17 13:33:18;;;;;;;0.50;0.50;;;-2.50;99.90;;;;;;5069188;28;20213;-69
2022/12/17 13:35:53;;;;;;;0.50;0.50;;;-2.50;99.90;;;;;;5054467;28;20244;-70
2022/12/17 13:38:26;;;;;;;0.43;0.43;;;-2.50;99.90;;;;;;5054098;28;20229;-70
2022/12/17 13:41:06;;;;;;;0.20;0.20;;;-2.50;99.90;;;;;;5050620;28;20213;-70
2022/12/17 13:43:38;;;;;;;0.30;0.30;;;-2.50;99.90;;;;;;5064404;28;20217;-70
2022/12/17 13:46:05;;;;;;;0.20;0.20;;;-2.50;99.90;;;;;;5051509;28;20258;-70
2022/12/17 13:48:38;;;;;;;0.20;0.20;;;-2.50;99.90;;;;;;5053474;28;20207;-70
2022/12/17 13:51:05;;;;;;;0.30;0.30;;;-2.50;99.90;;;;;;5054558;28;20307;-69
2022/12/17 13:53:33;;;;;;;0.20;0.20;;;-2.50;99.90;;;;;;5054737;28;20198;-70
2022/12/17 13:56:01;;;;;;;0.20;0.20;;;-2.50;99.90;;;;;;5056753;28;20234;-70
2022/12/17 13:58:32;;;;;;;0.20;0.20;;;-2.40;99.90;;;;;;5067062;28;20251;-70
2022/12/17 14:01:07;;;;;;;0.30;0.30;;;-2.50;99.90;;;;;;5055299;28;20216;-70
2022/12/17 14:03:35;;;;;;;0.50;0.50;;;-2.50;99.90;;;;;;5052463;28;20214;-70
2022/12/17 14:06:07;;;;;;;0.25;0.25;;;-2.60;99.90;;;;;;5072791;28;20238;-70
2022/12/17 14:08:34;;;;;;;0.68;0.68;;;-2.60;99.90;;;;;;5068352;28;20198;-70
2022/12/17 14:13:49;;;;;;;0.22;0.22;;;-2.60;99.90;;;;;;5047396;28;20201;-70
2022/12/17 14:16:17;;;;;;;0.30;0.30;;;-2.60;99.90;;;;;;5071852;28;20215;-70
2022/12/17 14:18:47;;;;;;;0.20;0.20;;;-2.70;99.90;;;;;;5051516;28;20225;-70
2022/12/17 14:21:16;;;;;;;0.25;0.25;;;-2.60;99.90;;;;;;5056720;28;20203;-70
2022/12/17 14:23:44;;;;;;;0.20;0.20;;;-2.60;99.90;;;;;;5052561;28;20209;-70
2022/12/17 14:26:12;;;;;;;0.20;0.20;;;-2.60;99.90;;;;;;5072944;28;20253;-69
2022/12/17 14:28:46;;;;;;;0.20;0.20;;;-2.60;99.90;;;;;;5071350;28;20205;-70
2022/12/17 14:31:19;;;;;;;0.28;0.28;;;-2.60;99.90;;;;;;5067723;28;20270;-70
2022/12/17 14:33:47;;;;;;;0.28;0.28;;;-2.60;99.90;;;;;;5052510;28;20198;-70
2022/12/17 14:36:25;;;;;;;0.20;0.20;;;-2.60;99.90;;;;;;5051222;28;20218;-70
2022/12/17 14:38:54;;;;;;;0.20;0.20;;;-2.50;99.90;;;;;;5054551;28;20316;-69
2022/12/17 14:44:20;;;;;;;0.52;0.52;;;-2.50;99.90;;;;;;5048264;28;20194;-69
2022/12/17 14:46:47;;;;;;;0.30;0.30;;;-2.60;99.90;;;;;;5051623;28;20299;-70
2022/12/17 14:49:18;;;;;;;0.40;0.40;;;-2.70;99.90;;;;;;5058704;28;20194;-69
2022/12/17 14:51:48;;;;;;;0.40;0.40;;;-2.70;99.90;;;;;;5057093;28;20199;-69
2022/12/17 14:54:21;;;;;;;0.30;0.30;;;-2.80;99.90;;;;;;5056360;28;20203;-69
2022/12/17 14:56:49;;;;;;;0.30;0.30;;;-2.80;99.90;;;;;;5055897;28;20218;-69
2022/12/17 14:59:31;;;;;;;0.20;0.20;;;-2.80;99.90;;;;;;5074647;28;20314;-69
2022/12/17 15:02:00;;;;;;;0.20;0.20;;;-2.80;99.90;;;;;;5049827;28;20202;-69
2022/12/17 15:04:28;;;;;;;0.20;0.20;;;-2.80;99.90;;;;;;5058412;28;20278;-70
2022/12/17 15:06:56;;;;;;;0.10;0.10;;;-2.90;99.90;;;;;;5051085;28;20234;-70
2022/12/17 15:09:23;;;;;;;0.20;0.20;;;-2.90;99.90;;;;;;5050351;28;20206;-69
2022/12/17 15:11:50;;;;;;;0.20;0.20;;;-2.90;99.90;;;;;;5069682;28;20211;-69
2022/12/17 15:14:18;;;;;;;0.20;0.20;;;-2.90;99.90;;;;;;5073118;28;20202;-69
2022/12/17 15:16:46;;;;;;;0.20;0.20;;;-2.90;99.90;;;;;;5071683;28;20218;-70
2022/12/17 15:19:13;;;;;;;0.20;0.20;;;-2.90;99.90;;;;;;5059121;28;20194;-70
2022/12/17 15:21:40;;;;;;;0.20;0.20;;;-2.90;99.90;;;;;;5049644;28;20205;-68
2022/12/17 15:24:14;;;;;;;0.20;0.20;;;-3.00;99.90;;;;;;5059643;28;20234;-68
2022/12/17 15:26:41;;;;;;;0.20;0.20;;;-3.00;99.90;;;;;;5050624;28;20222;-68
2022/12/17 15:29:08;;;;;;;0.20;0.20;;;-3.00;99.90;;;;;;5073952;28;20202;-69
2022/12/17 15:31:36;;;;;;;0.20;0.20;;;-2.90;99.90;;;;;;5056730;28;20214;-68
2022/12/17 15:34:03;;;;;;;0.20;0.20;;;-2.90;99.90;;;;;;5055328;28;20206;-69
2022/12/17 15:36:31;;;;;;;0.20;0.20;;;-2.90;99.90;;;;;;5057550;28;20219;-69
2022/12/17 15:38:59;;;;;;;0.10;0.10;;;-2.90;99.90;;;;;;5075873;28;20209;-70
2022/12/17 15:44:12;;;;;;;0.20;0.20;;;-2.90;99.90;;;;;;5072724;28;20208;-71
2022/12/17 15:46:39;;;;;;;0.30;0.30;;;-3.00;99.90;;;;;;5054912;28;20250;-70
2022/12/17 15:49:09;;;;;;;0.20;0.20;;;-3.10;99.90;;;;;;5052985;28;20262;-70
2022/12/17 15:51:37;;;;;;;0.20;0.20;;;-3.10;99.90;;;;;;5067466;28;20194;-70
2022/12/17 15:54:04;;;;;;;0.20;0.20;;;-3.10;99.90;;;;;;5075363;28;20206;-70
2022/12/17 15:56:33;;;;;;;0.20;0.20;;;-3.10;99.90;;;;;;5054843;28;20226;-70
2022/12/17 15:59:00;;;;;;;0.20;0.20;;;-3.20;99.90;;;;;;5066792;28;20260;-70
2022/12/17 16:01:27;;;;;;;0.20;0.20;;;-3.10;99.90;;;;;;5052776;28;20202;-70
2022/12/17 16:03:54;;;;;;;0.20;0.20;;;-3.10;99.90;;;;;;5073231;28;20294;-70
2022/12/17 16:06:21;;;;;;;0.20;0.20;;;-3.10;99.90;;;;;;5056199;28;20284;-70
2022/12/17 16:08:48;;;;;;;0.10;0.10;;;-3.10;99.90;;;;;;5049341;28;20233;-70
2022/12/17 16:11:15;;;;;;;0.20;0.20;;;-3.10;99.90;;;;;;5071635;28;20210;-70
2022/12/17 16:13:44;;;;;;;0.10;0.10;;;-3.10;99.90;;;;;;5065558;28;20272;-70
2022/12/17 16:16:11;;;;;;;0.20;0.20;;;-3.20;99.90;;;;;;5049207;28;20223;-70
2022/12/17 16:18:38;;;;;;;0.20;0.20;;;-3.20;99.90;;;;;;5055953;28;20198;-70
2022/12/17 16:21:07;;;;;;;0.20;0.20;;;-3.20;99.90;;;;;;5048418;28;20203;-70
2022/12/17 16:23:34;;;;;;;0.20;0.20;;;-3.20;99.90;;;;;;5052831;28;20199;-70
2022/12/17 16:26:03;;;;;;;0.20;0.20;;;-3.30;99.90;;;;;;5048885;28;20227;-70
2022/12/17 16:28:30;;;;;;;0.20;0.20;;;-3.30;99.90;;;;;;5055443;28;20223;-70
2022/12/17 16:31:05;;;;;;;0.20;0.20;;;-3.40;99.90;;;;;;5056058;28;20201;-70
2022/12/17 16:33:33;;;;;;;0.38;0.38;;;-3.40;99.90;;;;;;5053383;28;20213;-70
2022/12/17 16:36:01;;;;;;;0.30;0.30;;;-3.50;99.90;;;;;;5057055;28;20228;-70
2022/12/17 16:38:29;;;;;;;0.20;0.20;;;-3.50;99.90;;;;;;5055843;28;20198;-69
2022/12/17 16:40:56;;;;;;;0.30;0.30;;;-3.60;99.90;;;;;;5058186;28;20213;-70
2022/12/17 16:43:24;;;;;;;0.20;0.20;;;-3.60;99.90;;;;;;5057876;28;20297;-70
2022/12/17 16:45:52;;;;;;;0.20;0.20;;;-3.60;99.90;;;;;;5069159;28;20251;-69
2022/12/17 16:48:21;;;;;;;0.20;0.20;;;-3.60;99.90;;;;;;5073236;28;20226;-69
2022/12/17 16:50:50;;;;;;;0.20;0.20;;;-3.60;99.90;;;;;;5057480;28;20205;-69
2022/12/17 16:53:18;;;;;;;0.20;0.20;;;-3.60;99.90;;;;;;5047782;28;20229;-70
2022/12/17 16:55:46;;;;;;;0.30;0.30;;;-3.60;99.90;;;;;;5052438;28;20225;-70
2022/12/17 16:58:14;;;;;;;0.30;0.30;;;-3.60;99.90;;;;;;5075679;28;20194;-70
2022/12/17 17:00:41;;;;;;;0.32;0.32;;;-3.60;99.90;;;;;;5066602;28;20205;-70
2022/12/17 17:03:09;;;;;;;0.30;0.30;;;-3.70;99.90;;;;;;5069163;28;20203;-70
2022/12/17 17:05:39;;;;;;;0.20;0.20;;;-3.70;99.90;;;;;;5046848;28;20254;-70
2022/12/17 17:08:07;;;;;;;0.20;0.20;;;-3.70;99.90;;;;;;5060448;28;20301;-70
2022/12/17 17:10:36;;;;;;;0.20;0.20;;;-3.70;99.90;;;;;;5065348;28;20199;-70
2022/12/17 17:13:03;;;;;;;0.20;0.20;;;-3.70;99.90;;;;;;5047114;28;20203;-70
2022/12/17 17:15:30;;;;;;;0.20;0.20;;;-3.70;99.90;;;;;;5054880;28;20214;-70
2022/12/17 17:17:58;;;;;;;0.20;0.20;;;-3.70;99.90;;;;;;5048062;28;20202;-70
2022/12/17 17:20:24;;;;;;;0.10;0.10;;;-3.60;99.90;;;;;;5072171;28;20203;-71
2022/12/17 17:22:53;;;;;;;0.20;0.20;;;-3.60;99.90;;;;;;5047129;28;20217;-71
2022/12/17 17:25:21;;;;;;;0.30;0.30;;;-3.60;99.90;;;;;;5052568;28;20210;-69
2022/12/17 17:27:48;;;;;;;0.20;0.20;;;-3.50;99.90;;;;;;5075559;28;20221;-70
2022/12/17 17:30:15;;;;;;;0.22;0.22;;;-3.50;99.90;;;;;;5068028;28;20198;-71
2022/12/17 17:32:42;;;;;;;0.20;0.20;;;-3.50;99.90;;;;;;5056262;28;20289;-69
2022/12/17 17:35:09;;;;;;;0.20;0.20;;;-3.50;99.90;;;;;;5072986;28;20198;-70
2022/12/17 17:37:36;;;;;;;0.20;0.20;;;-3.50;99.90;;;;;;5058605;28;20195;-71
2022/12/17 17:40:06;;;;;;;0.20;0.20;;;-3.50;99.90;;;;;;5057903;28;20203;-70
2022/12/17 17:42:33;;;;;;;0.20;0.20;;;-3.50;99.90;;;;;;5051226;28;20213;-71
2022/12/17 17:45:03;;;;;;;0.20;0.20;;;-3.50;99.90;;;;;;5045769;28;20206;-70
2022/12/17 17:47:30;;;;;;;0.20;0.20;;;-3.50;99.90;;;;;;5055175;28;20218;-71
2022/12/17 17:49:57;;;;;;;0.20;0.20;;;-3.50;99.90;;;;;;5053352;28;20202;-71
2022/12/17 17:52:24;;;;;;;0.20;0.20;;;-3.50;99.90;;;;;;5046714;28;20202;-70
2022/12/17 17:54:53;;;;;;;0.20;0.20;;;-3.50;99.90;;;;;;5064341;28;20226;-70
2022/12/17 17:57:21;;;;;;;0.20;0.20;;;-3.60;99.90;;;;;;5073193;28;20228;-70
2022/12/17 17:59:48;;;;;;;0.30;0.30;;;-3.60;99.90;;;;;;5063923;28;20209;-70
2022/12/17 18:02:15;;;;;;;0.20;0.20;;;-3.60;99.90;;;;;;5047676;28;20202;-70
2022/12/17 18:04:42;;;;;;;0.10;0.10;;;-3.60;99.90;;;;;;5048920;28;20221;-71
2022/12/17 18:07:09;;;;;;;0.30;0.30;;;-3.60;99.90;;;;;;5055249;28;20225;-70
2022/12/17 18:09:36;;;;;;;0.20;0.20;;;-3.60;99.90;;;;;;5069932;28;20229;-68
2022/12/17 18:13:53;;;;;;;0.20;0.20;;;-3.70;99.90;;;;;;5068283;28;20294;-68
2022/12/17 18:14:51;;;;;;;0.20;0.20;;;-3.70;99.90;;;;;;5073297;28;20235;-68
2022/12/17 18:17:19;;;;;;;0.10;0.10;;;-3.70;99.90;;;;;;5061446;28;20222;-69
2022/12/17 18:19:47;;;;;;;0.20;0.20;;;-3.70;99.90;;;;;;5059133;28;20214;-69
2022/12/17 18:22:14;;;;;;;0.20;0.20;;;-3.70;99.90;;;;;;5054327;28;20224;-69
2022/12/17 18:24:41;;;;;;;0.20;0.20;;;-3.70;99.90;;;;;;5059823;28;20217;-69
2022/12/17 18:27:08;;;;;;;0.20;0.20;;;-3.70;99.90;;;;;;5055968;28;20218;-69
2022/12/17 18:29:35;;;;;;;0.20;0.20;;;-3.80;99.90;;;;;;5074595;28;20218;-69
2022/12/17 18:32:04;;;;;;;0.20;0.20;;;-3.80;99.90;;;;;;5057625;28;20206;-68
2022/12/17 18:34:32;;;;;;;0.20;0.20;;;-3.80;99.90;;;;;;5075538;28;20206;-69
2022/12/17 18:36:59;;;;;;;0.20;0.20;;;-3.80;99.90;;;;;;5073363;28;20259;-69
2022/12/17 18:39:26;;;;;;;0.20;0.20;;;-3.80;99.90;;;;;;5050229;28;20191;-69
2022/12/17 18:44:52;;;;;;;0.30;0.30;;;-3.70;99.90;;;;;;5024922;28;20204;-69
2022/12/17 18:47:21;;;;;;;0.20;0.20;;;-3.70;99.90;;;;;;5007584;28;20224;-69
2022/12/17 18:49:48;;;;;;;0.20;0.20;;;-3.70;99.90;;;;;;5027120;28;20223;-69
2022/12/17 18:52:15;;;;;;;0.20;0.20;;;-3.70;99.90;;;;;;5056765;28;20202;-69
2022/12/17 18:54:42;;;;;;;0.20;0.20;;;-3.70;99.90;;;;;;5049554;28;20194;-69
2022/12/17 18:57:09;;;;;;;0.30;0.30;;;-3.70;99.90;;;;;;5054917;28;20222;-68
2022/12/17 18:59:36;;;;;;;0.28;0.28;;;-3.80;99.90;;;;;;5048611;28;20289;-69
2022/12/17 19:02:03;;;;;;;0.40;0.40;;;-3.80;99.90;;;;;;5074058;28;20199;-69
2022/12/17 19:04:32;;;;;;;0.30;0.30;;;-3.80;99.90;;;;;;5075533;28;20206;-69
2022/12/17 19:06:59;;;;;;;0.30;0.30;;;-3.80;99.90;;;;;;5054388;28;20270;-69
2022/12/17 19:09:27;;;;;;;0.30;0.30;;;-3.80;99.90;;;;;;5050221;28;20210;-69
2022/12/17 19:11:55;;;;;;;0.20;0.20;;;-3.80;99.90;;;;;;5056282;28;20301;-69
2022/12/17 19:14:22;;;;;;;0.32;0.32;;;-3.80;99.90;;;;;;5051221;28;20200;-69
2022/12/17 19:16:50;;;;;;;0.30;0.30;;;-3.80;99.90;;;;;;5057248;28;20226;-69
2022/12/17 19:19:18;;;;;;;0.20;0.20;;;-3.80;99.90;;;;;;5055706;28;20202;-70
2022/12/17 19:21:47;;;;;;;0.28;0.28;;;-3.80;99.90;;;;;;5075896;28;20209;-70
2022/12/17 19:24:17;;;;;;;0.20;0.20;;;-3.80;99.90;;;;;;5065824;28;20203;-69
2022/12/17 19:26:44;;;;;;;0.20;0.20;;;-3.80;99.90;;;;;;5073405;28;20318;-69
2022/12/17 19:29:12;;;;;;;0.25;0.25;;;-3.80;99.90;;;;;;5053983;28;20219;-70
2022/12/17 19:31:39;;;;;;;0.20;0.20;;;-3.90;99.90;;;;;;5073618;28;20202;-69
2022/12/17 19:34:11;;;;;;;0.20;0.20;;;-3.80;99.90;;;;;;5048294;28;20315;-70
2022/12/17 19:36:39;;;;;;;0.38;0.38;;;-3.80;99.90;;;;;;5050306;28;20271;-69
2022/12/17 19:39:12;;;;;;;0.40;0.40;;;-3.80;99.90;;;;;;5075921;28;20206;-69
2022/12/17 19:41:39;;;;;;;0.20;0.20;;;-3.80;99.90;;;;;;5072666;28;20198;-70
2022/12/17 19:44:08;;;;;;;0.20;0.20;;;-3.90;99.90;;;;;;5054524;28;20229;-70
2022/12/17 19:46:36;;;;;;;0.20;0.20;;;-3.90;99.90;;;;;;5061442;28;20213;-69
2022/12/17 19:49:04;;;;;;;0.20;0.20;;;-4.00;99.90;;;;;;5055531;28;20226;-69
2022/12/17 19:51:32;;;;;;;0.20;0.20;;;-4.00;99.90;;;;;;5056065;28;20205;-69
2022/12/17 19:54:00;;;;;;;0.20;0.20;;;-3.90;99.90;;;;;;5071101;28;20222;-69
2022/12/17 19:56:30;;;;;;;0.20;0.20;;;-3.90;99.90;;;;;;5051547;28;20241;-69
2022/12/17 19:59:00;;;;;;;0.20;0.20;;;-3.90;99.90;;;;;;5055031;28;20194;-69
2022/12/17 20:01:29;;;;;;;0.20;0.20;;;-3.90;99.90;;;;;;5053184;28;20248;-69
2022/12/17 20:03:56;;;;;;;0.20;0.20;;;-4.00;99.90;;;;;;5050809;28;20210;-69
2022/12/17 20:06:26;;;;;;;0.20;0.20;;;-4.00;99.90;;;;;;5056104;28;20229;-69
2022/12/17 20:08:54;;;;;;;0.20;0.20;;;-4.00;99.90;;;;;;5057529;28;20229;-69
2022/12/17 20:11:33;;;;;;;0.20;0.20;;;-4.00;99.90;;;;;;5055284;28;20198;-70
2022/12/17 20:14:05;;;;;;;0.20;0.20;;;-4.00;99.90;;;;;;5052837;28;20206;-70
2022/12/17 20:16:34;;;;;;;0.20;0.20;;;-4.00;99.90;;;;;;5057030;28;20247;-69
2022/12/17 20:19:02;;;;;;;0.20;0.20;;;-4.10;99.90;;;;;;5071261;28;20204;-70
2022/12/17 20:21:29;;;;;;;0.20;0.20;;;-4.10;99.90;;;;;;5052547;28;20203;-69
2022/12/17 20:23:56;;;;;;;0.20;0.20;;;-4.10;99.90;;;;;;5047350;28;20209;-71
2022/12/17 20:26:24;;;;;;;0.22;0.22;;;-4.10;99.90;;;;;;5074252;28;20225;-69
2022/12/17 20:28:51;;;;;;;0.20;0.20;;;-4.10;99.90;;;;;;5071274;28;20226;-71
2022/12/17 20:31:20;;;;;;;0.20;0.20;;;-4.10;99.90;;;;;;5072315;28;20201;-70
2022/12/17 20:33:47;;;;;;;0.20;0.20;;;-4.10;99.90;;;;;;5052177;28;20294;-70
2022/12/17 20:36:15;;;;;;;0.20;0.20;;;-4.10;99.90;;;;;;5069193;28;20214;-70
2022/12/17 20:38:43;;;;;;;0.20;0.20;;;-4.10;99.90;;;;;;5055361;28;20206;-70
2022/12/17 20:41:11;;;;;;;0.20;0.20;;;-4.10;99.90;;;;;;5052622;28;20202;-70
2022/12/17 20:43:42;;;;;;;0.20;0.20;;;-4.10;99.90;;;;;;5055130;28;20202;-71
2022/12/17 20:46:11;;;;;;;0.20;0.20;;;-4.10;99.90;;;;;;5070189;28;20214;-69
2022/12/17 20:48:40;;;;;;;0.20;0.20;;;-4.00;99.90;;;;;;5052518;28;20213;-70
2022/12/17 20:51:08;;;;;;;0.20;0.20;;;-4.00;99.90;;;;;;5065190;28;20213;-71
2022/12/17 20:53:35;;;;;;;0.20;0.20;;;-4.00;99.90;;;;;;5052712;28;20210;-70
2022/12/17 20:56:04;;;;;;;0.20;0.20;;;-4.10;99.90;;;;;;5071532;28;20215;-70
2022/12/17 20:58:31;;;;;;;0.20;0.20;;;-4.10;99.90;;;;;;5055591;28;20214;-70
2022/12/17 21:01:04;;;;;;;0.20;0.20;;;-4.30;99.90;;;;;;5057999;28;20205;-71
2022/12/17 21:03:31;;;;;;;0.20;0.20;;;-4.20;99.90;;;;;;5065180;28;20294;-71
2022/12/17 21:06:07;;;;;;;0.20;0.20;;;-4.20;99.90;;;;;;5067159;28;20262;-70
2022/12/17 21:08:35;;;;;;;0.20;0.20;;;-4.30;99.90;;;;;;5057411;28;20210;-70
2022/12/17 21:11:02;;;;;;;0.30;0.30;;;-4.30;99.90;;;;;;5048845;28;20214;-70
2022/12/17 21:13:30;;;;;;;0.20;0.20;;;-4.40;99.90;;;;;;5052578;28;20206;-70
2022/12/17 21:15:58;;;;;;;0.20;0.20;;;-4.40;99.90;;;;;;5052549;28;20250;-69
2022/12/17 21:18:25;;;;;;;0.20;0.20;;;-4.40;99.90;;;;;;5051582;28;20202;-70
2022/12/17 21:20:57;;;;;;;0.30;0.30;;;-4.30;99.90;;;;;;5066377;28;20202;-71
2022/12/17 21:23:26;;;;;;;0.20;0.20;;;-4.30;99.90;;;;;;5056032;28;20198;-70
2022/12/17 21:26:07;;;;;;;0.20;0.20;;;-4.30;99.90;;;;;;5053614;28;20222;-70
2022/12/17 21:28:36;;;;;;;0.20;0.20;;;-4.30;99.90;;;;;;5069242;28;20297;-70
2022/12/17 21:31:03;;;;;;;0.20;0.20;;;-4.30;99.90;;;;;;5051348;28;20225;-69
2022/12/17 21:33:32;;;;;;;0.20;0.20;;;-4.30;99.90;;;;;;5071273;28;20198;-69
2022/12/17 21:36:00;;;;;;;0.20;0.20;;;-4.30;99.90;;;;;;5074272;28;20222;-69
2022/12/17 21:38:30;;;;;;;0.30;0.30;;;-4.30;99.90;;;;;;5066892;28;20202;-70
2022/12/17 21:41:03;;;;;;;0.20;0.20;;;-4.30;99.90;;;;;;5056007;28;20202;-69
2022/12/17 21:43:30;;;;;;;0.20;0.20;;;-4.30;99.90;;;;;;5052484;28;20236;-69
2022/12/17 21:45:57;;;;;;;0.20;0.20;;;-4.40;99.90;;;;;;5071530;28;20226;-69
2022/12/17 21:48:24;;;;;;;0.20;0.20;;;-4.40;99.90;;;;;;5045679;28;20195;-70
2022/12/17 21:50:51;;;;;;;0.20;0.20;;;-4.50;99.90;;;;;;5054450;28;20216;-69
2022/12/17 21:53:18;;;;;;;0.20;0.20;;;-4.50;99.90;;;;;;5068788;28;20206;-69
2022/12/17 21:55:47;;;;;;;0.20;0.20;;;-4.50;99.90;;;;;;5050685;28;20246;-69
2022/12/17 21:58:14;;;;;;;0.30;0.30;;;-4.50;99.90;;;;;;5046671;28;20218;-69
2022/12/17 22:00:42;;;;;;;0.30;0.30;;;-4.50;99.90;;;;;;5054713;28;20199;-69
2022/12/17 22:03:09;;;;;;;0.20;0.20;;;-4.50;99.90;;;;;;5066655;28;20195;-69
2022/12/17 22:05:37;;;;;;;0.20;0.20;;;-4.60;99.90;;;;;;5069160;28;20314;-69
2022/12/17 22:08:04;;;;;;;0.10;0.10;;;-4.60;99.90;;;;;;5055165;28;20194;-70
2022/12/17 22:10:31;;;;;;;0.20;0.20;;;-4.60;99.90;;;;;;5045270;28;20218;-70
2022/12/17 22:15:49;;;;;;;0.38;0.38;;;-4.60;99.90;;;;;;4991229;28;20232;-70
2022/12/17 22:18:16;;;;;;;0.20;0.20;;;-4.60;99.90;;;;;;5071179;28;20232;-70
2022/12/17 22:20:43;;;;;;;0.30;0.30;;;-4.60;99.90;;;;;;5071670;28;20194;-70
2022/12/17 22:23:10;;;;;;;0.20;0.20;;;-4.60;99.90;;;;;;5067288;28;20214;-70
2022/12/17 22:25:37;;;;;;;0.20;0.20;;;-4.60;99.90;;;;;;5053469;28;20219;-69
2022/12/17 22:28:06;;;;;;;0.30;0.30;;;-4.60;99.90;;;;;;5068944;28;20233;-70
2022/12/17 22:33:17;;;;;;;0.20;0.20;;;-4.70;99.90;;;;;;5060411;28;20228;-69
2022/12/17 22:35:45;;;;;;;0.25;0.25;;;-4.60;99.90;;;;;;5068442;28;20218;-70
2022/12/17 22:38:12;;;;;;;0.30;0.30;;;-4.60;99.90;;;;;;5054058;28;20226;-69
2022/12/17 22:40:39;;;;;;;0.20;0.20;;;-4.60;99.90;;;;;;5071552;28;20194;-69
2022/12/17 22:45:59;;;;;;;0.20;0.20;;;-4.60;99.90;;;;;;5046128;28;20222;-70
2022/12/17 22:48:26;;;;;;;0.13;0.13;;;-4.50;99.90;;;;;;5062713;28;20207;-69
2022/12/17 22:50:53;;;;;;;0.20;0.20;;;-4.60;99.90;;;;;;5051956;28;20503;-69
2022/12/17 22:53:20;;;;;;;0.20;0.20;;;-4.60;99.90;;;;;;5049996;28;20198;-70
2022/12/17 22:55:47;;;;;;;0.30;0.30;;;-4.70;99.90;;;;;;5068030;28;20226;-70
2022/12/17 22:58:16;;;;;;;0.20;0.20;;;-4.70;99.90;;;;;;5070426;28;20324;-71
2022/12/17 23:00:44;;;;;;;0.22;0.22;;;-4.70;99.90;;;;;;5046235;28;20199;-70
2022/12/17 23:03:11;;;;;;;0.40;0.40;;;-4.70;99.90;;;;;;5069892;28;20202;-69
2022/12/17 23:05:38;;;;;;;0.20;0.20;;;-4.80;99.90;;;;;;5055208;28;20258;-70
2022/12/17 23:08:05;;;;;;;0.20;0.20;;;-4.80;99.90;;;;;;5073171;28;20209;-70
2022/12/17 23:10:32;;;;;;;0.30;0.30;;;-4.90;99.90;;;;;;5072294;28;20295;-69
2022/12/17 23:12:59;;;;;;;0.20;0.20;;;-4.90;99.90;;;;;;5060780;28;20206;-70
2022/12/17 23:15:30;;;;;;;0.22;0.22;;;-4.90;99.90;;;;;;5070291;28;20325;-70
2022/12/17 23:17:59;;;;;;;0.30;0.30;;;-4.90;99.90;;;;;;5056069;28;20198;-70
2022/12/17 23:20:30;;;;;;;0.20;0.20;;;-5.00;99.90;;;;;;5056373;28;20209;-68
2022/12/17 23:22:57;;;;;;;0.20;0.20;;;-4.90;99.90;;;;;;5059646;28;20218;-70
2022/12/17 23:25:25;;;;;;;0.22;0.22;;;-4.90;99.90;;;;;;5072899;28;20228;-71
2022/12/17 23:27:52;;;;;;;0.20;0.20;;;-4.90;99.90;;;;;;5076090;28;20206;-69
2022/12/17 23:30:20;;;;;;;0.20;0.20;;;-4.90;99.90;;;;;;5068663;28;20314;-71
2022/12/17 23:32:49;;;;;;;0.20;0.20;;;-4.90;99.90;;;;;;5047491;28;20206;-70
2022/12/17 23:35:16;;;;;;;0.20;0.20;;;-4.90;99.90;;;;;;5049194;28;20203;-70
2022/12/17 23:37:43;;;;;;;0.20;0.20;;;-4.90;99.90;;;;;;5054851;28;20203;-69
2022/12/17 23:40:11;;;;;;;0.20;0.20;;;-4.90;99.90;;;;;;5056342;28;20291;-71
2022/12/17 23:42:39;;;;;;;0.20;0.20;;;-4.90;99.90;;;;;;5058580;28;20205;-70
2022/12/17 23:45:09;;;;;;;0.20;0.20;;;-5.00;99.90;;;;;;5059515;28;20211;-70
2022/12/17 23:47:36;;;;;;;0.20;0.20;;;-5.00;99.90;;;;;;5049192;28;20214;-70
2022/12/17 23:50:06;;;;;;;0.20;0.20;;;-5.00;99.90;;;;;;5051310;28;20223;-70
2022/12/17 23:52:34;;;;;;;0.20;0.20;;;-5.10;99.90;;;;;;5057233;28;20193;-70
2022/12/17 23:55:01;;;;;;;0.20;0.20;;;-5.80;99.90;;;;;;5055593;28;20202;-70
2022/12/17 23:57:28;;;;;;;0.20;0.20;;;-5.20;99.90;;;;;;5056276;28;20226;-69
2022/12/17 23:59:55;;;;;;;0.22;0.22;;;-5.20;99.90;;;;;;5055985;28;20223;-70
